Time;durP1;ratioP1;P1;durP2;ratioP2;P2;SDS_P1;SDS_P2;PMS_P1;PMS_P2;Temp;Humidity;BMP_temperature;BMP_pressure;BME280_temperature;BME280_humidity;BME280_pressure;Samples;Min_cycle;Max_cycle;Signal;HPM_P1;HPM_P2
2021/10/09 04:01:51;;;;;;;55.65;31.40;;;7.10;99.90;;;;;;5270433;23;20239;-70
2021/10/09 04:04:18;;;;;;;53.10;27.80;;;7.10;99.90;;;;;;4898379;29;20214;-72
2021/10/09 04:06:45;;;;;;;50.33;30.75;;;7.10;99.90;;;;;;4898061;29;20618;-70
2021/10/09 04:09:11;;;;;;;72.50;37.25;;;7.00;99.90;;;;;;4899081;29;20571;-70
2021/10/09 04:11:38;;;;;;;52.33;28.30;;;7.00;99.90;;;;;;4898689;29;20231;-70
2021/10/09 04:14:05;;;;;;;129.35;56.47;;;7.00;99.90;;;;;;4898372;29;20234;-70
2021/10/09 04:16:31;;;;;;;94.95;49.10;;;7.00;99.90;;;;;;4898610;29;20667;-70
2021/10/09 04:18:59;;;;;;;66.43;38.40;;;6.90;99.90;;;;;;4898623;29;20272;-70
2021/10/09 04:21:26;;;;;;;62.30;34.70;;;6.90;99.90;;;;;;4897447;29;20695;-70
2021/10/09 04:23:52;;;;;;;56.75;32.85;;;6.90;99.90;;;;;;4898584;29;20211;-70
2021/10/09 04:26:19;;;;;;;57.30;34.58;;;6.90;99.90;;;;;;4898548;29;20211;-70
2021/10/09 04:28:46;;;;;;;67.40;36.92;;;6.90;99.90;;;;;;4898615;29;20223;-70
2021/10/09 04:31:12;;;;;;;60.25;34.05;;;6.80;99.90;;;;;;4898325;29;20227;-71
2021/10/09 04:33:39;;;;;;;70.15;34.88;;;6.80;99.90;;;;;;4898228;29;20215;-71
2021/10/09 04:36:08;;;;;;;145.55;66.68;;;6.80;99.90;;;;;;4897576;29;20271;-70
2021/10/09 04:38:35;;;;;;;98.22;49.38;;;6.80;99.90;;;;;;4898529;29;20347;-70
2021/10/09 04:41:01;;;;;;;80.30;42.00;;;6.80;99.90;;;;;;4898099;29;20288;-70
2021/10/09 04:43:28;;;;;;;73.20;37.83;;;6.80;99.90;;;;;;4898212;29;20266;-70
2021/10/09 04:45:55;;;;;;;66.05;33.67;;;6.70;99.90;;;;;;4898101;29;20222;-70
2021/10/09 04:48:21;;;;;;;44.70;26.38;;;6.70;99.90;;;;;;4897885;29;20211;-70
2021/10/09 04:50:48;;;;;;;40.08;25.40;;;6.70;99.90;;;;;;4897292;29;20231;-70
2021/10/09 04:53:16;;;;;;;42.92;24.60;;;6.70;99.90;;;;;;4897962;29;20219;-70
2021/10/09 04:55:42;;;;;;;37.67;25.38;;;6.70;99.90;;;;;;4898102;29;20732;-70
2021/10/09 04:58:09;;;;;;;36.10;24.00;;;6.60;99.90;;;;;;4898183;29;20298;-70
2021/10/09 05:00:36;;;;;;;65.80;33.47;;;6.60;99.90;;;;;;4897419;29;20234;-70
2021/10/09 05:03:02;;;;;;;90.80;47.65;;;6.60;99.90;;;;;;4897807;29;20254;-71
2021/10/09 05:05:29;;;;;;;76.68;38.30;;;6.60;99.90;;;;;;4897508;29;20226;-71
2021/10/09 05:07:56;;;;;;;60.67;33.35;;;6.60;99.90;;;;;;4897499;29;20220;-70
2021/10/09 05:10:25;;;;;;;63.20;34.47;;;6.60;99.90;;;;;;4897724;29;20263;-70
2021/10/09 05:12:52;;;;;;;64.25;34.22;;;6.50;99.90;;;;;;4897451;29;20311;-70
2021/10/09 05:15:18;;;;;;;49.53;30.90;;;6.50;99.90;;;;;;4897635;29;20222;-71
2021/10/09 05:17:45;;;;;;;44.88;26.90;;;6.50;99.90;;;;;;4897818;29;20640;-70
2021/10/09 05:20:12;;;;;;;39.75;25.80;;;6.50;99.90;;;;;;4897234;29;20275;-71
2021/10/09 05:22:38;;;;;;;52.05;30.83;;;6.50;99.90;;;;;;4896631;29;20746;-70
2021/10/09 05:25:06;;;;;;;67.90;34.25;;;6.50;99.90;;;;;;4897589;29;20207;-70
2021/10/09 05:27:35;;;;;;;69.07;32.72;;;6.40;99.90;;;;;;4896841;29;20635;-70
2021/10/09 05:30:06;;;;;;;62.50;31.10;;;6.40;99.90;;;;;;4897497;29;20274;-70
2021/10/09 05:32:35;;;;;;;48.20;28.45;;;6.40;99.90;;;;;;4897344;29;20211;-72
2021/10/09 05:35:02;;;;;;;42.65;25.50;;;6.40;99.90;;;;;;4897059;29;20219;-72
2021/10/09 05:37:31;;;;;;;41.38;26.63;;;6.40;99.90;;;;;;4897054;29;20207;-72
2021/10/09 05:39:58;;;;;;;47.90;27.10;;;6.40;99.90;;;;;;4897357;29;20239;-72
2021/10/09 05:42:25;;;;;;;45.55;26.63;;;6.40;99.90;;;;;;4896750;29;20271;-71
2021/10/09 05:44:53;;;;;;;41.40;25.98;;;6.40;99.90;;;;;;4897451;29;20211;-72
2021/10/09 05:47:19;;;;;;;43.92;25.92;;;6.40;99.90;;;;;;4897015;29;20215;-71
2021/10/09 05:49:51;;;;;;;49.97;28.92;;;6.30;99.90;;;;;;4896999;29;20215;-70
2021/10/09 05:52:22;;;;;;;54.08;26.83;;;6.30;99.90;;;;;;4896791;29;20632;-70
2021/10/09 05:54:53;;;;;;;50.30;26.98;;;6.40;99.90;;;;;;4897245;29;20219;-71
2021/10/09 05:57:27;;;;;;;44.00;27.73;;;6.40;99.90;;;;;;4896904;29;20385;-71
2021/10/09 06:44:03;;;;;;;43.70;26.63;;;6.60;99.90;;;;;;4900090;29;20229;-69
2021/10/09 06:46:45;;;;;;;39.15;24.90;;;6.60;99.90;;;;;;4900013;29;20616;-69
2021/10/09 07:00:07;;;;;;;41.65;26.17;;;6.80;99.90;;;;;;4899989;29;20222;-70
2021/10/09 07:02:37;;;;;;;43.30;26.70;;;6.80;99.90;;;;;;4899342;29;20246;-69
2021/10/09 07:05:06;;;;;;;53.17;28.17;;;6.90;99.90;;;;;;4899458;29;20219;-69
2021/10/09 07:07:35;;;;;;;48.83;27.10;;;7.00;99.90;;;;;;4899640;29;20219;-70
2021/10/09 07:10:02;;;;;;;43.53;26.45;;;7.00;99.90;;;;;;4899579;29;20382;-70
2021/10/09 07:12:29;;;;;;;47.17;27.70;;;7.10;99.90;;;;;;4899329;29;20235;-69
2021/10/09 07:14:56;;;;;;;45.83;28.25;;;7.10;99.90;;;;;;4899775;29;20219;-70
2021/10/09 07:17:22;;;;;;;45.40;26.83;;;7.20;99.90;;;;;;4899483;29;20652;-70
2021/10/09 07:19:49;;;;;;;45.17;28.95;;;7.30;99.90;;;;;;4899132;29;20671;-69
2021/10/09 07:22:17;;;;;;;39.97;25.38;;;7.30;99.90;;;;;;4898749;29;20283;-70
2021/10/09 07:24:43;;;;;;;42.65;26.67;;;7.40;99.90;;;;;;4899586;29;20219;-69
2021/10/09 07:27:10;;;;;;;39.42;24.10;;;7.50;99.90;;;;;;4899499;29;20266;-70
2021/10/09 07:29:37;;;;;;;36.97;24.52;;;7.50;99.90;;;;;;4899611;29;20279;-68
2021/10/09 07:32:04;;;;;;;31.88;22.20;;;7.60;99.90;;;;;;4898834;29;20239;-70
2021/10/09 07:34:31;;;;;;;32.63;23.77;;;7.60;99.90;;;;;;4898357;29;20222;-70
2021/10/09 07:36:58;;;;;;;34.25;22.25;;;7.70;99.90;;;;;;4898454;29;20266;-71
2021/10/09 07:39:26;;;;;;;28.85;20.55;;;7.80;99.90;;;;;;4899163;29;20215;-71
2021/10/09 07:41:53;;;;;;;37.53;21.63;;;7.80;99.90;;;;;;4898540;29;20241;-71
2021/10/09 07:44:22;;;;;;;30.73;19.77;;;7.90;99.90;;;;;;4898937;29;20263;-71
2021/10/09 07:46:48;;;;;;;23.08;18.55;;;7.90;99.90;;;;;;4898782;29;20207;-71
2021/10/09 07:49:15;;;;;;;25.02;18.00;;;8.00;99.90;;;;;;4898501;29;20670;-70
2021/10/09 07:51:43;;;;;;;22.73;17.20;;;8.10;99.90;;;;;;4896662;29;20279;-71
2021/10/09 07:54:10;;;;;;;21.38;16.92;;;8.20;99.90;;;;;;4898957;29;20219;-71
2021/10/09 07:56:38;;;;;;;22.73;16.88;;;8.30;99.90;;;;;;4898474;29;20216;-70
2021/10/09 07:59:05;;;;;;;20.60;13.45;;;8.40;99.90;;;;;;4898923;29;20263;-70
2021/10/09 08:01:32;;;;;;;18.30;14.52;;;8.50;99.90;;;;;;4898304;29;20338;-70
2021/10/09 08:03:59;;;;;;;15.68;13.57;;;8.50;99.90;;;;;;4898394;29;20579;-71
2021/10/09 08:06:26;;;;;;;20.33;14.70;;;8.60;99.90;;;;;;4898062;29;20211;-70
2021/10/09 08:08:53;;;;;;;17.70;13.57;;;8.60;99.90;;;;;;4898531;29;20286;-70
2021/10/09 08:11:20;;;;;;;18.02;13.57;;;8.70;99.90;;;;;;4898151;29;20656;-69
2021/10/09 08:13:48;;;;;;;17.40;12.85;;;8.80;99.90;;;;;;4898462;29;20675;-68
2021/10/09 08:16:14;;;;;;;13.60;12.27;;;8.80;99.90;;;;;;4898211;29;20617;-68
2021/10/09 08:18:41;;;;;;;17.65;12.77;;;8.90;99.90;;;;;;4898328;29;20703;-68
2021/10/09 08:21:08;;;;;;;24.30;13.88;;;9.00;99.90;;;;;;4897582;29;20238;-68
2021/10/09 08:23:40;;;;;;;22.77;11.93;;;9.10;99.90;;;;;;4898054;29;20242;-70
2021/10/09 08:26:35;;;;;;;16.50;11.35;;;9.20;99.90;;;;;;4898389;29;20262;-70
2021/10/09 08:38:44;;;;;;;18.40;9.77;;;9.60;99.90;;;;;;4897317;29;20583;-68
2021/10/09 08:40:08;;;;;;;15.98;10.05;;;9.70;99.90;;;;;;4897966;29;20527;-67
2021/10/09 08:42:35;;;;;;;13.13;9.85;;;9.70;99.90;;;;;;4897862;29;20295;-67
2021/10/09 08:45:04;;;;;;;15.10;10.18;;;9.80;99.90;;;;;;4897893;29;20506;-67
2021/10/09 08:47:33;;;;;;;15.60;9.90;;;9.90;99.90;;;;;;4898072;29;20211;-68
2021/10/09 08:50:00;;;;;;;13.50;10.88;;;9.90;99.90;;;;;;4897540;29;20243;-68
2021/10/09 08:52:27;;;;;;;12.52;10.77;;;10.00;99.90;;;;;;4897357;29;20232;-68
2021/10/09 08:54:53;;;;;;;11.00;9.90;;;10.10;99.90;;;;;;4897868;29;20298;-67
2021/10/09 08:57:22;;;;;;;12.18;9.88;;;10.20;99.90;;;;;;4897515;29;20263;-67
2021/10/09 08:59:51;;;;;;;14.57;9.70;;;10.20;99.90;;;;;;4897238;29;20247;-67
2021/10/09 09:02:23;;;;;;;9.52;8.45;;;10.40;99.90;;;;;;4897074;29;20330;-68
2021/10/09 09:04:57;;;;;;;10.02;8.77;;;10.50;99.90;;;;;;4897072;29;20222;-67
2021/10/09 09:33:35;;;;;;;11.15;8.55;;;11.30;99.90;;;;;;4896391;29;20211;-70
2021/10/09 09:39:07;;;;;;;9.00;7.78;;;11.50;99.90;;;;;;4858066;29;20204;-71
2021/10/09 09:41:46;;;;;;;8.55;7.70;;;11.60;99.90;;;;;;4857345;29;20276;-71
2021/10/09 09:44:14;;;;;;;7.70;7.05;;;11.70;99.90;;;;;;4878436;29;20266;-71
2021/10/09 09:46:41;;;;;;;14.55;8.90;;;11.80;99.90;;;;;;4896655;29;20267;-72
2021/10/09 09:49:09;;;;;;;7.40;6.25;;;11.90;99.90;;;;;;4896832;29;20738;-71
2021/10/09 09:51:39;;;;;;;13.07;8.02;;;12.00;99.90;;;;;;4895425;29;20557;-71
2021/10/09 09:54:06;;;;;;;9.88;8.10;;;12.10;99.90;;;;;;4896439;29;20532;-71
2021/10/09 09:56:33;;;;;;;12.75;7.00;;;12.10;99.90;;;;;;4896607;29;20214;-72
2021/10/09 09:59:02;;;;;;;9.52;7.10;;;12.20;99.90;;;;;;4896703;29;20210;-73
2021/10/09 10:01:33;;;;;;;9.15;5.75;;;12.30;99.90;;;;;;4896550;29;20663;-73
2021/10/09 10:04:00;;;;;;;9.05;7.30;;;12.40;99.90;;;;;;4896696;29;20634;-73
2021/10/09 10:06:28;;;;;;;11.18;6.93;;;12.50;99.90;;;;;;4895876;29;20215;-72
2021/10/09 10:08:57;;;;;;;11.38;7.55;;;12.60;99.90;;;;;;4896800;29;20298;-72
2021/10/09 10:11:24;;;;;;;9.88;6.10;;;12.70;99.90;;;;;;4896476;29;20285;-72
2021/10/09 10:13:52;;;;;;;7.80;7.05;;;12.80;99.90;;;;;;4900126;29;20552;-72
2021/10/09 10:16:19;;;;;;;7.93;6.07;;;12.90;99.90;;;;;;4900802;29;20675;-72
2021/10/09 10:18:54;;;;;;;8.52;6.55;;;12.90;99.90;;;;;;4900169;29;20299;-72
2021/10/09 10:21:46;;;;;;;7.20;6.47;;;13.00;99.90;;;;;;4899793;29;20258;-72
2021/10/09 10:24:37;;;;;;;8.65;7.47;;;13.00;99.90;;;;;;4900731;29;20210;-73
2021/10/09 10:27:33;;;;;;;5.88;5.30;;;13.10;99.90;;;;;;4900523;29;20219;-71
2021/10/09 10:30:22;;;;;;;10.50;5.70;;;13.30;99.90;;;;;;4901544;29;20286;-72
2021/10/09 10:33:21;;;;;;;7.00;6.40;;;13.50;99.90;;;;;;4919269;29;20462;-71
2021/10/09 10:35:48;;;;;;;6.50;5.90;;;13.50;99.90;;;;;;4918090;29;20474;-71
2021/10/09 10:38:48;;;;;;;6.23;5.60;;;13.60;99.90;;;;;;4919153;29;20518;-72
2021/10/09 10:41:21;;;;;;;10.50;6.30;;;13.60;99.90;;;;;;4918672;29;20494;-72
2021/10/09 10:43:51;;;;;;;7.43;6.20;;;13.60;99.90;;;;;;4918791;29;21098;-73
2021/10/09 10:46:41;;;;;;;6.27;5.63;;;13.60;99.90;;;;;;4919011;29;20470;-72
2021/10/09 10:49:16;;;;;;;10.80;6.10;;;13.70;99.90;;;;;;4919374;29;20823;-73
2021/10/09 10:55:01;;;;;;;8.10;6.63;;;13.80;99.90;;;;;;4905550;29;20497;-73
2021/10/09 10:57:28;;;;;;;9.10;6.30;;;13.90;99.90;;;;;;4918981;29;20474;-72
2021/10/09 11:00:14;;;;;;;10.07;6.67;;;13.90;99.90;;;;;;4918804;29;20473;-72
2021/10/09 11:02:48;;;;;;;6.23;5.47;;;13.90;99.90;;;;;;4909553;29;20490;-73
2021/10/09 11:05:16;;;;;;;7.00;6.40;;;13.90;99.90;;;;;;4899421;29;20602;-72
2021/10/09 11:07:44;;;;;;;10.13;5.63;;;13.90;99.90;;;;;;4899441;29;20517;-73
2021/10/09 11:10:13;;;;;;;7.83;5.20;;;13.90;99.90;;;;;;4899686;29;20570;-73
2021/10/09 11:12:41;;;;;;;7.60;5.50;;;14.00;99.90;;;;;;4899361;29;20550;-73
2021/10/09 11:15:22;;;;;;;7.50;5.43;;;14.00;99.90;;;;;;4899438;29;20538;-73
2021/10/09 11:17:50;;;;;;;6.23;5.30;;;14.10;99.90;;;;;;4897845;29;20495;-72
2021/10/09 11:20:23;;;;;;;7.00;4.90;;;14.10;99.90;;;;;;4899101;29;20471;-73
2021/10/09 11:22:51;;;;;;;12.30;6.20;;;14.10;99.90;;;;;;4898817;29;20539;-73
2021/10/09 11:25:26;;;;;;;5.97;5.50;;;14.10;99.90;;;;;;4898421;29;20475;-73
2021/10/09 11:27:53;;;;;;;8.47;6.20;;;14.10;99.90;;;;;;4899517;29;20566;-71
2021/10/09 11:30:22;;;;;;;8.53;5.37;;;14.20;99.90;;;;;;4899001;29;20475;-71
2021/10/09 11:32:49;;;;;;;7.53;5.53;;;14.20;99.90;;;;;;4898700;29;20492;-71
2021/10/09 11:35:27;;;;;;;6.80;6.10;;;14.20;99.90;;;;;;4898509;29;20540;-71
2021/10/09 11:37:54;;;;;;;7.63;6.30;;;14.20;99.90;;;;;;4898603;29;20482;-72
2021/10/09 11:40:32;;;;;;;8.40;6.23;;;14.20;99.90;;;;;;4898866;29;20477;-72
2021/10/09 11:43:08;;;;;;;8.17;7.47;;;14.30;99.90;;;;;;4898569;29;21039;-72
2021/10/09 11:45:43;;;;;;;6.53;5.93;;;14.30;99.90;;;;;;4898790;29;20471;-72
2021/10/09 11:53:52;;;;;;;5.93;5.53;;;14.50;99.90;;;;;;4898254;29;20454;-71
2021/10/09 11:56:20;;;;;;;6.13;5.53;;;14.60;99.90;;;;;;4898631;29;20463;-71
2021/10/09 11:58:57;;;;;;;5.70;5.00;;;14.60;99.90;;;;;;4898697;29;20840;-71
2021/10/09 12:01:35;;;;;;;5.50;5.13;;;14.60;99.90;;;;;;4898326;29;20545;-71
2021/10/09 12:04:19;;;;;;;5.17;4.73;;;14.60;99.70;;;;;;4898768;29;20495;-71
2021/10/09 12:06:48;;;;;;;14.67;5.70;;;14.60;99.90;;;;;;4897853;29;20474;-71
2021/10/09 12:09:17;;;;;;;6.30;4.80;;;14.70;99.40;;;;;;4898766;29;20467;-71
2021/10/09 12:11:44;;;;;;;5.00;4.53;;;14.70;99.30;;;;;;4898651;29;20682;-71
2021/10/09 12:14:13;;;;;;;5.23;4.67;;;14.70;99.40;;;;;;4898033;29;20531;-71
2021/10/09 12:16:42;;;;;;;5.83;5.43;;;14.70;97.90;;;;;;4898104;29;20475;-71
2021/10/09 12:19:11;;;;;;;5.93;5.33;;;14.80;98.40;;;;;;4898280;29;20534;-71
2021/10/09 12:21:40;;;;;;;5.03;4.63;;;14.80;99.40;;;;;;4896610;29;20513;-71
2021/10/09 12:24:15;;;;;;;5.43;4.90;;;14.80;99.90;;;;;;4897732;29;20487;-72
2021/10/09 12:26:42;;;;;;;6.87;5.83;;;14.80;99.90;;;;;;4897614;29;20570;-71
2021/10/09 12:29:14;;;;;;;5.23;4.83;;;14.80;99.90;;;;;;4897978;29;20476;-71
2021/10/09 12:31:44;;;;;;;8.93;5.60;;;14.80;99.60;;;;;;4897508;29;20495;-71
2021/10/09 12:34:32;;;;;;;8.10;5.50;;;14.80;99.40;;;;;;4896753;29;20969;-72
2021/10/09 12:37:18;;;;;;;9.10;6.20;;;14.80;99.70;;;;;;4897244;29;20467;-71
2021/10/09 12:39:46;;;;;;;5.87;5.37;;;14.90;99.90;;;;;;4898218;29;20534;-71
2021/10/09 12:42:15;;;;;;;6.30;5.60;;;14.90;99.80;;;;;;4897379;29;20491;-72
2021/10/09 12:44:41;;;;;;;7.07;5.40;;;14.90;99.90;;;;;;4897498;29;20975;-72
2021/10/09 12:47:09;;;;;;;5.77;5.17;;;14.90;99.40;;;;;;4897889;29;20533;-72
2021/10/09 12:49:36;;;;;;;5.40;4.90;;;15.00;99.80;;;;;;4896880;29;20471;-72
2021/10/09 12:52:03;;;;;;;8.10;5.13;;;15.00;98.70;;;;;;4897020;29;20543;-73
2021/10/09 12:54:31;;;;;;;5.67;4.33;;;15.00;99.60;;;;;;4897505;29;20514;-72
2021/10/09 12:56:58;;;;;;;5.13;4.60;;;15.00;98.50;;;;;;4897520;29;20559;-72
2021/10/09 12:59:26;;;;;;;5.23;4.77;;;15.10;98.10;;;;;;4897248;29;20480;-72
2021/10/09 13:01:53;;;;;;;4.93;4.53;;;15.10;98.60;;;;;;4897194;29;20502;-72
2021/10/09 13:04:21;;;;;;;5.17;4.77;;;15.20;98.00;;;;;;4896684;29;20491;-72
2021/10/09 13:06:48;;;;;;;5.20;4.70;;;15.20;99.10;;;;;;4896894;29;20478;-73
2021/10/09 13:09:15;;;;;;;6.40;6.00;;;15.10;99.20;;;;;;4897405;29;20496;-74
2021/10/09 13:11:49;;;;;;;4.63;4.30;;;15.20;97.90;;;;;;4897219;29;20495;-73
2021/10/09 13:14:16;;;;;;;5.30;4.80;;;15.20;98.40;;;;;;4896932;29;20963;-73
2021/10/09 13:16:43;;;;;;;4.57;4.13;;;15.10;99.40;;;;;;4897016;29;20478;-73
2021/10/09 13:19:09;;;;;;;5.73;5.30;;;15.20;99.60;;;;;;4897214;29;20574;-73
2021/10/09 13:21:38;;;;;;;7.17;5.23;;;15.10;99.90;;;;;;4896019;29;21023;-74
2021/10/09 13:24:05;;;;;;;6.67;4.90;;;15.20;99.90;;;;;;4897067;29;20487;-73
2021/10/09 13:26:32;;;;;;;5.40;4.90;;;15.20;99.90;;;;;;4896984;29;20876;-73
2021/10/09 13:29:00;;;;;;;5.53;4.67;;;15.20;99.90;;;;;;4897267;29;20490;-72
2021/10/09 13:31:26;;;;;;;7.10;4.53;;;15.20;99.90;;;;;;4896822;29;20507;-73
2021/10/09 13:33:53;;;;;;;5.50;5.10;;;15.20;99.90;;;;;;4896499;29;21019;-72
2021/10/09 13:36:21;;;;;;;5.33;4.77;;;15.20;99.90;;;;;;4896221;29;20467;-73
2021/10/09 13:38:48;;;;;;;4.50;4.27;;;15.20;99.90;;;;;;4897149;29;20818;-73
2021/10/09 13:41:16;;;;;;;4.17;3.90;;;15.30;99.80;;;;;;4896886;29;20550;-73
2021/10/09 13:43:42;;;;;;;4.70;4.27;;;15.30;99.10;;;;;;4896418;29;20487;-73
2021/10/09 13:46:10;;;;;;;4.77;4.10;;;15.30;99.00;;;;;;4896755;29;20817;-73
2021/10/09 13:48:36;;;;;;;6.03;4.30;;;15.40;99.00;;;;;;4896074;29;21018;-73
2021/10/09 13:51:04;;;;;;;4.83;3.83;;;15.40;98.40;;;;;;4895216;29;20550;-73
2021/10/09 13:53:31;;;;;;;3.17;3.07;;;15.40;98.20;;;;;;4896307;29;20781;-73
2021/10/09 13:55:58;;;;;;;3.20;3.10;;;15.40;97.80;;;;;;4895786;29;20503;-73
2021/10/09 13:58:25;;;;;;;3.57;3.30;;;15.40;98.20;;;;;;4896542;29;20515;-74
2021/10/09 14:00:53;;;;;;;4.13;3.80;;;15.40;98.20;;;;;;4896152;29;20511;-71
2021/10/09 14:03:20;;;;;;;3.40;3.30;;;15.40;99.30;;;;;;4896825;29;20495;-71
2021/10/09 14:05:47;;;;;;;3.50;3.30;;;15.40;98.20;;;;;;4896160;29;20475;-71
2021/10/09 14:08:13;;;;;;;4.77;4.53;;;15.40;98.70;;;;;;4896273;29;20880;-71
2021/10/09 14:10:40;;;;;;;3.80;3.67;;;15.40;99.00;;;;;;4896516;29;20495;-71
2021/10/09 14:13:11;;;;;;;4.90;3.57;;;15.40;99.90;;;;;;4896190;29;20953;-71
2021/10/09 14:15:38;;;;;;;5.70;4.17;;;15.40;99.90;;;;;;4896422;29;20835;-73
2021/10/09 14:18:04;;;;;;;5.13;4.40;;;15.40;99.90;;;;;;4896321;29;20483;-73
2021/10/09 14:20:31;;;;;;;5.03;4.60;;;15.40;99.90;;;;;;4895976;29;20487;-73
2021/10/09 14:22:58;;;;;;;4.97;4.43;;;15.40;99.90;;;;;;4895873;29;20467;-73
2021/10/09 14:25:31;;;;;;;5.20;4.70;;;15.40;99.90;;;;;;4896590;29;20486;-73
2021/10/09 14:27:58;;;;;;;4.67;4.30;;;15.40;99.90;;;;;;4896090;29;21026;-73
2021/10/09 14:30:26;;;;;;;5.77;4.80;;;15.30;99.90;;;;;;4895798;29;20487;-73
2021/10/09 14:32:53;;;;;;;5.00;4.43;;;15.30;99.90;;;;;;4894609;29;20554;-73
2021/10/09 14:35:20;;;;;;;4.93;4.37;;;15.30;99.90;;;;;;4895839;29;20467;-73
2021/10/09 14:37:47;;;;;;;5.40;5.00;;;15.30;99.90;;;;;;4895671;29;20487;-73
2021/10/09 14:40:14;;;;;;;5.07;4.67;;;15.30;99.90;;;;;;4896642;29;20475;-73
2021/10/09 14:42:44;;;;;;;6.40;4.97;;;15.20;99.90;;;;;;4896173;29;20508;-73
2021/10/09 14:45:11;;;;;;;4.83;4.60;;;15.20;99.90;;;;;;4896749;29;20499;-74
2021/10/09 14:47:45;;;;;;;4.37;4.17;;;15.20;99.90;;;;;;4896641;29;20467;-73
2021/10/09 14:53:13;;;;;;;4.73;4.33;;;15.10;99.90;;;;;;4875764;29;20522;-74
2021/10/09 15:17:49;;;;;;;5.27;4.67;;;14.60;99.90;;;;;;4901925;29;20506;-75
2021/10/09 15:20:17;;;;;;;4.70;4.40;;;14.60;99.90;;;;;;4908548;29;20839;-74
2021/10/09 15:22:44;;;;;;;5.73;4.73;;;14.50;99.90;;;;;;4918220;29;20865;-75
2021/10/09 15:25:13;;;;;;;5.07;4.67;;;14.50;99.90;;;;;;4918317;29;20577;-72
2021/10/09 15:27:40;;;;;;;4.70;4.50;;;14.40;99.90;;;;;;4918584;29;20847;-72
2021/10/09 15:30:08;;;;;;;5.60;4.43;;;14.40;99.90;;;;;;4922663;29;20474;-72
2021/10/09 15:32:35;;;;;;;6.23;4.37;;;14.30;99.90;;;;;;4921583;29;20470;-72
2021/10/09 15:35:01;;;;;;;4.10;3.90;;;14.30;99.90;;;;;;4924039;29;20853;-72
2021/10/09 15:37:30;;;;;;;4.47;3.90;;;14.20;99.90;;;;;;4926909;29;20577;-72
2021/10/09 15:39:57;;;;;;;5.03;4.63;;;14.10;99.90;;;;;;4932451;29;20471;-72
2021/10/09 15:42:24;;;;;;;4.33;4.13;;;14.10;99.90;;;;;;4921613;29;20502;-72
2021/10/09 15:44:51;;;;;;;6.27;4.23;;;14.00;99.90;;;;;;4919320;29;20605;-72
2021/10/09 15:47:17;;;;;;;5.43;5.10;;;13.90;99.90;;;;;;4920600;29;20502;-72
2021/10/09 15:49:44;;;;;;;4.40;4.20;;;13.90;99.90;;;;;;4919857;29;20466;-72
2021/10/09 15:52:10;;;;;;;4.70;4.40;;;13.80;99.90;;;;;;4906015;29;20853;-72
2021/10/09 15:54:38;;;;;;;5.67;5.27;;;13.70;99.90;;;;;;4899137;29;20463;-72
2021/10/09 15:57:08;;;;;;;6.20;3.80;;;13.70;99.90;;;;;;4899067;29;20842;-72
2021/10/09 15:59:35;;;;;;;6.80;5.20;;;13.60;99.90;;;;;;4899516;29;20467;-72
2021/10/09 16:02:01;;;;;;;4.73;4.43;;;13.60;99.90;;;;;;4898948;29;20499;-72
2021/10/09 16:04:28;;;;;;;5.43;4.80;;;13.50;99.90;;;;;;4900169;29;20495;-72
2021/10/09 16:06:55;;;;;;;4.23;4.03;;;13.40;99.90;;;;;;4901958;29;20487;-72
2021/10/09 16:09:22;;;;;;;4.57;4.37;;;13.30;99.90;;;;;;4902157;29;20466;-72
2021/10/09 16:11:50;;;;;;;5.00;4.60;;;13.20;99.90;;;;;;4898932;29;20853;-72
2021/10/09 16:14:17;;;;;;;4.97;4.57;;;13.20;99.90;;;;;;4900028;29;20949;-72
2021/10/09 16:16:44;;;;;;;5.53;5.07;;;13.10;99.90;;;;;;4903926;29;20548;-72
2021/10/09 16:19:10;;;;;;;5.90;5.43;;;13.00;99.90;;;;;;4903703;29;20495;-72
2021/10/09 16:21:37;;;;;;;4.47;4.27;;;12.90;99.90;;;;;;4903563;29;20231;-72
2021/10/09 16:24:04;;;;;;;5.50;5.00;;;12.80;99.90;;;;;;4903857;29;20558;-72
2021/10/09 16:26:31;;;;;;;10.55;4.50;;;12.70;99.90;;;;;;4903945;29;20550;-72
2021/10/09 16:28:59;;;;;;;6.20;5.05;;;12.70;99.90;;;;;;4903737;29;20286;-72
2021/10/09 16:31:29;;;;;;;8.43;5.60;;;12.60;99.90;;;;;;4904228;29;20235;-73
2021/10/09 16:33:56;;;;;;;4.88;4.53;;;12.50;99.90;;;;;;4902879;29;20222;-72
2021/10/09 16:36:22;;;;;;;7.80;5.03;;;12.40;99.90;;;;;;4897634;29;20251;-72
2021/10/09 16:38:49;;;;;;;6.20;5.70;;;12.30;99.90;;;;;;4898116;29;20247;-72
2021/10/09 16:41:16;;;;;;;5.57;4.75;;;12.30;99.90;;;;;;4897587;29;20231;-72
2021/10/09 16:43:42;;;;;;;5.43;5.03;;;12.20;99.90;;;;;;4897389;29;20215;-72
2021/10/09 16:46:11;;;;;;;5.40;4.93;;;12.10;99.90;;;;;;4897902;29;20223;-72
2021/10/09 16:48:37;;;;;;;4.85;4.43;;;12.10;99.90;;;;;;4897724;29;20215;-72
2021/10/09 16:51:04;;;;;;;5.00;4.50;;;12.00;99.90;;;;;;4896807;29;20235;-72
2021/10/09 16:53:32;;;;;;;6.20;5.65;;;11.90;99.90;;;;;;4898141;29;20268;-72
2021/10/09 16:55:59;;;;;;;8.30;5.85;;;11.80;99.90;;;;;;4897542;29;20230;-71
2021/10/09 16:58:25;;;;;;;5.90;5.40;;;11.80;99.90;;;;;;4898200;29;20339;-72
2021/10/09 17:00:52;;;;;;;5.95;5.45;;;11.70;99.90;;;;;;4896963;29;20760;-72
2021/10/09 17:03:20;;;;;;;5.30;4.90;;;11.60;99.90;;;;;;4897122;29;20219;-71
2021/10/09 17:05:47;;;;;;;5.97;5.43;;;11.60;99.90;;;;;;4896141;29;20707;-72
2021/10/09 17:08:14;;;;;;;7.15;5.55;;;11.60;99.90;;;;;;4897521;29;20215;-72
2021/10/09 17:10:40;;;;;;;7.57;5.95;;;11.50;99.90;;;;;;4897215;29;20235;-72
2021/10/09 17:13:07;;;;;;;6.30;5.75;;;11.40;99.90;;;;;;4897335;29;20214;-72
2021/10/09 17:15:34;;;;;;;6.40;5.85;;;11.40;99.90;;;;;;4897255;29;20583;-72
2021/10/09 17:18:00;;;;;;;7.15;6.45;;;11.40;99.90;;;;;;4897190;29;20604;-72
2021/10/09 17:20:28;;;;;;;7.57;6.15;;;11.40;99.90;;;;;;4896553;29;20645;-72
2021/10/09 17:22:55;;;;;;;7.30;6.47;;;11.30;99.90;;;;;;4895916;29;20219;-71
2021/10/09 17:25:22;;;;;;;6.82;6.32;;;11.20;99.90;;;;;;4897259;29;20604;-72
2021/10/09 17:27:48;;;;;;;8.93;7.15;;;11.20;99.90;;;;;;4897129;29;20621;-72
2021/10/09 17:30:15;;;;;;;7.13;6.43;;;11.10;99.90;;;;;;4895479;29;20223;-72
2021/10/09 17:32:44;;;;;;;7.22;6.53;;;11.00;99.90;;;;;;4897473;29;20211;-71
2021/10/09 17:35:11;;;;;;;7.60;6.95;;;11.00;99.90;;;;;;4897649;29;20644;-71
2021/10/09 17:37:39;;;;;;;7.55;6.80;;;11.00;99.90;;;;;;4897338;29;20215;-72
2021/10/09 17:40:07;;;;;;;10.00;7.15;;;10.90;99.90;;;;;;4897391;29;20211;-72
2021/10/09 17:42:34;;;;;;;11.07;8.02;;;10.90;99.90;;;;;;4897713;29;20302;-72
2021/10/09 17:45:00;;;;;;;11.82;8.02;;;10.80;99.90;;;;;;4897312;29;20298;-74
2021/10/09 17:47:27;;;;;;;9.60;7.72;;;10.80;99.90;;;;;;4896682;29;20292;-74
2021/10/09 17:49:54;;;;;;;12.88;8.15;;;10.70;99.90;;;;;;4898671;29;20274;-74
2021/10/09 17:52:21;;;;;;;8.77;7.95;;;10.70;99.90;;;;;;4909978;29;20257;-74
2021/10/09 17:54:49;;;;;;;8.70;7.90;;;10.60;99.90;;;;;;4916023;29;20242;-75
2021/10/09 17:57:16;;;;;;;11.35;8.75;;;10.60;99.90;;;;;;4917039;29;20301;-74
2021/10/09 17:59:43;;;;;;;9.73;8.85;;;10.60;99.90;;;;;;4916519;29;20210;-74
2021/10/09 18:02:09;;;;;;;12.15;10.30;;;10.50;99.90;;;;;;4916482;29;20242;-73
2021/10/09 18:04:40;;;;;;;9.65;8.77;;;10.50;99.90;;;;;;4917170;29;20735;-75
2021/10/09 18:07:09;;;;;;;12.80;10.10;;;10.40;99.90;;;;;;4915112;29;20214;-74
2021/10/09 18:09:36;;;;;;;8.77;8.00;;;10.40;99.90;;;;;;4915915;29;20218;-74
2021/10/09 18:12:05;;;;;;;9.60;8.20;;;10.40;99.90;;;;;;4915455;29;20277;-70
2021/10/09 18:14:32;;;;;;;9.40;8.40;;;10.40;99.90;;;;;;4915523;29;20585;-74
2021/10/09 18:16:59;;;;;;;9.30;8.40;;;10.30;99.90;;;;;;4915615;29;20214;-74
2021/10/09 18:19:26;;;;;;;9.30;8.50;;;10.30;99.90;;;;;;4913260;29;20584;-74
2021/10/09 18:21:53;;;;;;;9.88;8.80;;;10.30;99.90;;;;;;4915480;29;20238;-74
2021/10/09 18:24:20;;;;;;;10.38;9.35;;;10.20;99.90;;;;;;4915326;29;20576;-74
2021/10/09 18:26:46;;;;;;;10.43;9.32;;;10.20;99.90;;;;;;4915323;29;20239;-75
2021/10/09 18:29:14;;;;;;;10.18;9.27;;;10.20;99.90;;;;;;4914989;29;20682;-74
2021/10/09 18:31:41;;;;;;;9.90;8.85;;;10.10;99.90;;;;;;4915416;29;20338;-74
2021/10/09 18:34:08;;;;;;;9.48;8.68;;;10.10;99.90;;;;;;4917555;29;20218;-74
2021/10/09 18:36:35;;;;;;;9.95;9.05;;;10.00;99.90;;;;;;4918414;29;20210;-74
2021/10/09 18:39:01;;;;;;;10.00;8.90;;;10.00;99.90;;;;;;4919518;29;20218;-74
2021/10/09 18:41:28;;;;;;;9.77;8.68;;;10.00;99.90;;;;;;4906857;29;20287;-74
2021/10/09 18:43:55;;;;;;;9.10;8.30;;;9.90;99.90;;;;;;4900010;29;20271;-73
2021/10/09 18:46:23;;;;;;;10.60;9.50;;;9.90;99.90;;;;;;4899817;29;20239;-73
2021/10/09 18:48:50;;;;;;;8.77;7.88;;;9.90;99.90;;;;;;4900260;29;20207;-74
2021/10/09 18:51:16;;;;;;;10.50;9.55;;;9.80;99.90;;;;;;4899172;29;20282;-73
2021/10/09 18:53:43;;;;;;;10.85;8.88;;;9.80;99.90;;;;;;4899676;29;20240;-74
2021/10/09 18:56:11;;;;;;;10.65;9.50;;;9.80;99.90;;;;;;4899596;29;20648;-74
2021/10/09 18:58:39;;;;;;;13.45;9.52;;;9.80;99.90;;;;;;4900437;29;20222;-74